sensor_id;sensor_type;location;lat;lon;timestamp;P1;durP1;ratioP1;P2;durP2;ratioP2
8480;SDS011;4277;51.354;6.740;2023-10-08T00:02:22;9.75;;;4.22;;
8480;SDS011;4277;51.354;6.740;2023-10-08T00:04:50;8.13;;;4.25;;
8480;SDS011;4277;51.354;6.740;2023-10-08T00:07:19;7.95;;;4.68;;
8480;SDS011;4277;51.354;6.740;2023-10-08T00:09:47;5.80;;;4.32;;
8480;SDS011;4277;51.354;6.740;2023-10-08T00:12:13;7.22;;;4.20;;
8480;SDS011;4277;51.354;6.740;2023-10-08T00:14:41;6.28;;;4.40;;
8480;SDS011;4277;51.354;6.740;2023-10-08T00:17:14;5.47;;;3.70;;
8480;SDS011;4277;51.354;6.740;2023-10-08T00:19:40;6.70;;;3.97;;
8480;SDS011;4277;51.354;6.740;2023-10-08T00:22:09;5.13;;;3.95;;
8480;SDS011;4277;51.354;6.740;2023-10-08T00:24:35;8.10;;;4.10;;
8480;SDS011;4277;51.354;6.740;2023-10-08T00:27:05;7.50;;;4.55;;
8480;SDS011;4277;51.354;6.740;2023-10-08T00:29:31;6.90;;;4.10;;
8480;SDS011;4277;51.354;6.740;2023-10-08T00:31:58;7.43;;;4.60;;
8480;SDS011;4277;51.354;6.740;2023-10-08T00:34:24;4.78;;;3.75;;
8480;SDS011;4277;51.354;6.740;2023-10-08T00:36:52;6.05;;;4.25;;
8480;SDS011;4277;51.354;6.740;2023-10-08T00:39:18;6.13;;;3.95;;
8480;SDS011;4277;51.354;6.740;2023-10-08T00:41:48;4.50;;;3.72;;
8480;SDS011;4277;51.354;6.740;2023-10-08T00:44:23;6.03;;;4.10;;
8480;SDS011;4277;51.354;6.740;2023-10-08T00:46:54;6.15;;;3.90;;
8480;SDS011;4277;51.354;6.740;2023-10-08T00:49:24;6.15;;;3.90;;
8480;SDS011;4277;51.354;6.740;2023-10-08T00:52:00;7.30;;;4.13;;
8480;SDS011;4277;51.354;6.740;2023-10-08T00:54:49;7.53;;;4.53;;
8480;SDS011;4277;51.354;6.740;2023-10-08T00:57:28;7.28;;;3.90;;
8480;SDS011;4277;51.354;6.740;2023-10-08T00:59:55;7.47;;;4.65;;
8480;SDS011;4277;51.354;6.740;2023-10-08T01:02:22;4.53;;;3.58;;
8480;SDS011;4277;51.354;6.740;2023-10-08T01:05:07;9.13;;;4.30;;
8480;SDS011;4277;51.354;6.740;2023-10-08T01:07:35;6.43;;;3.92;;
8480;SDS011;4277;51.354;6.740;2023-10-08T01:10:01;8.35;;;4.32;;
8480;SDS011;4277;51.354;6.740;2023-10-08T01:12:35;5.43;;;3.83;;
8480;SDS011;4277;51.354;6.740;2023-10-08T01:15:09;7.85;;;4.60;;
8480;SDS011;4277;51.354;6.740;2023-10-08T01:17:43;8.13;;;4.32;;
8480;SDS011;4277;51.354;6.740;2023-10-08T01:20:24;8.73;;;4.60;;
8480;SDS011;4277;51.354;6.740;2023-10-08T01:23:05;8.25;;;4.10;;
8480;SDS011;4277;51.354;6.740;2023-10-08T01:25:57;7.63;;;4.05;;
8480;SDS011;4277;51.354;6.740;2023-10-08T01:28:35;9.48;;;4.20;;
8480;SDS011;4277;51.354;6.740;2023-10-08T01:31:01;7.28;;;4.13;;
8480;SDS011;4277;51.354;6.740;2023-10-08T01:33:29;4.40;;;3.65;;
8480;SDS011;4277;51.354;6.740;2023-10-08T01:35:56;5.60;;;3.53;;
8480;SDS011;4277;51.354;6.740;2023-10-08T01:38:28;7.60;;;4.05;;
8480;SDS011;4277;51.354;6.740;2023-10-08T01:40:54;9.15;;;4.07;;
8480;SDS011;4277;51.354;6.740;2023-10-08T01:43:21;10.27;;;4.10;;
8480;SDS011;4277;51.354;6.740;2023-10-08T01:45:47;7.40;;;4.18;;
8480;SDS011;4277;51.354;6.740;2023-10-08T01:48:16;8.10;;;3.90;;
8480;SDS011;4277;51.354;6.740;2023-10-08T01:50:53;5.95;;;4.20;;
8480;SDS011;4277;51.354;6.740;2023-10-08T01:53:19;9.88;;;4.00;;
8480;SDS011;4277;51.354;6.740;2023-10-08T01:55:45;8.18;;;4.22;;
8480;SDS011;4277;51.354;6.740;2023-10-08T01:58:17;9.57;;;4.20;;
8480;SDS011;4277;51.354;6.740;2023-10-08T02:00:44;8.85;;;4.25;;
8480;SDS011;4277;51.354;6.740;2023-10-08T02:03:11;7.10;;;4.13;;
8480;SDS011;4277;51.354;6.740;2023-10-08T02:05:38;6.65;;;4.10;;
8480;SDS011;4277;51.354;6.740;2023-10-08T02:08:07;8.57;;;4.43;;
8480;SDS011;4277;51.354;6.740;2023-10-08T02:10:33;5.78;;;4.15;;
8480;SDS011;4277;51.354;6.740;2023-10-08T02:13:00;7.35;;;4.18;;
8480;SDS011;4277;51.354;6.740;2023-10-08T02:15:26;8.15;;;4.38;;
8480;SDS011;4277;51.354;6.740;2023-10-08T02:17:52;9.90;;;4.25;;
8480;SDS011;4277;51.354;6.740;2023-10-08T02:20:20;7.40;;;4.00;;
8480;SDS011;4277;51.354;6.740;2023-10-08T02:22:47;7.22;;;4.35;;
8480;SDS011;4277;51.354;6.740;2023-10-08T02:25:14;6.40;;;3.92;;
8480;SDS011;4277;51.354;6.740;2023-10-08T02:27:40;9.30;;;4.30;;
8480;SDS011;4277;51.354;6.740;2023-10-08T02:30:07;7.43;;;4.20;;
8480;SDS011;4277;51.354;6.740;2023-10-08T02:32:35;10.02;;;4.75;;
8480;SDS011;4277;51.354;6.740;2023-10-08T02:35:07;6.82;;;4.35;;
8480;SDS011;4277;51.354;6.740;2023-10-08T02:37:36;8.30;;;4.65;;
8480;SDS011;4277;51.354;6.740;2023-10-08T02:40:05;8.25;;;4.38;;
8480;SDS011;4277;51.354;6.740;2023-10-08T02:42:39;7.22;;;4.10;;
8480;SDS011;4277;51.354;6.740;2023-10-08T02:45:06;8.45;;;4.28;;
8480;SDS011;4277;51.354;6.740;2023-10-08T02:47:38;10.23;;;4.30;;
8480;SDS011;4277;51.354;6.740;2023-10-08T02:50:05;8.15;;;4.03;;
8480;SDS011;4277;51.354;6.740;2023-10-08T02:52:33;6.85;;;4.07;;
8480;SDS011;4277;51.354;6.740;2023-10-08T02:54:59;8.57;;;4.70;;
8480;SDS011;4277;51.354;6.740;2023-10-08T02:57:25;8.55;;;4.78;;
8480;SDS011;4277;51.354;6.740;2023-10-08T02:59:54;7.43;;;4.70;;
8480;SDS011;4277;51.354;6.740;2023-10-08T03:02:20;7.50;;;4.50;;
8480;SDS011;4277;51.354;6.740;2023-10-08T03:04:49;8.15;;;4.68;;
8480;SDS011;4277;51.354;6.740;2023-10-08T03:07:17;10.02;;;4.78;;
8480;SDS011;4277;51.354;6.740;2023-10-08T03:09:49;10.13;;;4.83;;
8480;SDS011;4277;51.354;6.740;2023-10-08T03:12:16;8.70;;;4.90;;
8480;SDS011;4277;51.354;6.740;2023-10-08T03:14:43;10.03;;;4.70;;
8480;SDS011;4277;51.354;6.740;2023-10-08T03:17:25;8.63;;;3.97;;
8480;SDS011;4277;51.354;6.740;2023-10-08T03:19:51;7.80;;;4.37;;
8480;SDS011;4277;51.354;6.740;2023-10-08T03:22:17;8.63;;;4.60;;
8480;SDS011;4277;51.354;6.740;2023-10-08T03:24:44;7.87;;;4.47;;
8480;SDS011;4277;51.354;6.740;2023-10-08T03:27:13;6.47;;;4.60;;
8480;SDS011;4277;51.354;6.740;2023-10-08T03:29:45;8.90;;;4.33;;
8480;SDS011;4277;51.354;6.740;2023-10-08T03:32:12;5.75;;;4.05;;
8480;SDS011;4277;51.354;6.740;2023-10-08T03:34:43;8.32;;;4.72;;
8480;SDS011;4277;51.354;6.740;2023-10-08T03:37:11;9.02;;;4.78;;
8480;SDS011;4277;51.354;6.740;2023-10-08T03:39:44;7.33;;;4.20;;
8480;SDS011;4277;51.354;6.740;2023-10-08T03:42:23;9.93;;;4.37;;
8480;SDS011;4277;51.354;6.740;2023-10-08T03:44:52;7.17;;;3.83;;
8480;SDS011;4277;51.354;6.740;2023-10-08T03:47:24;9.77;;;4.30;;
8480;SDS011;4277;51.354;6.740;2023-10-08T03:49:51;7.10;;;4.10;;
8480;SDS011;4277;51.354;6.740;2023-10-08T03:52:19;6.80;;;4.07;;
8480;SDS011;4277;51.354;6.740;2023-10-08T03:54:48;8.13;;;4.30;;
8480;SDS011;4277;51.354;6.740;2023-10-08T03:57:28;7.57;;;4.40;;
8480;SDS011;4277;51.354;6.740;2023-10-08T04:00:06;9.40;;;4.60;;
8480;SDS011;4277;51.354;6.740;2023-10-08T04:02:36;10.20;;;4.57;;
8480;SDS011;4277;51.354;6.740;2023-10-08T04:05:06;6.85;;;3.95;;
8480;SDS011;4277;51.354;6.740;2023-10-08T04:07:45;9.73;;;5.07;;
8480;SDS011;4277;51.354;6.740;2023-10-08T04:10:23;6.57;;;4.23;;
8480;SDS011;4277;51.354;6.740;2023-10-08T04:13:07;9.13;;;4.57;;
8480;SDS011;4277;51.354;6.740;2023-10-08T04:15:37;9.93;;;4.97;;
8480;SDS011;4277;51.354;6.740;2023-10-08T04:18:10;9.23;;;4.87;;
8480;SDS011;4277;51.354;6.740;2023-10-08T04:20:36;8.70;;;4.50;;
8480;SDS011;4277;51.354;6.740;2023-10-08T04:23:03;10.40;;;4.03;;
8480;SDS011;4277;51.354;6.740;2023-10-08T04:25:30;7.43;;;4.33;;
8480;SDS011;4277;51.354;6.740;2023-10-08T04:27:56;7.17;;;4.30;;
8480;SDS011;4277;51.354;6.740;2023-10-08T04:30:26;5.97;;;3.67;;
8480;SDS011;4277;51.354;6.740;2023-10-08T04:33:02;6.97;;;4.40;;
8480;SDS011;4277;51.354;6.740;2023-10-08T04:35:38;7.73;;;4.13;;
8480;SDS011;4277;51.354;6.740;2023-10-08T04:38:13;7.17;;;4.00;;
8480;SDS011;4277;51.354;6.740;2023-10-08T04:40:42;7.03;;;4.23;;
8480;SDS011;4277;51.354;6.740;2023-10-08T04:43:13;8.67;;;4.60;;
8480;SDS011;4277;51.354;6.740;2023-10-08T04:45:40;6.53;;;4.40;;
8480;SDS011;4277;51.354;6.740;2023-10-08T04:48:06;7.67;;;4.30;;
8480;SDS011;4277;51.354;6.740;2023-10-08T04:50:35;8.00;;;4.30;;
8480;SDS011;4277;51.354;6.740;2023-10-08T04:53:02;8.53;;;4.07;;
8480;SDS011;4277;51.354;6.740;2023-10-08T04:55:32;6.60;;;4.00;;
8480;SDS011;4277;51.354;6.740;2023-10-08T04:57:58;6.63;;;4.17;;
8480;SDS011;4277;51.354;6.740;2023-10-08T05:00:25;6.73;;;4.00;;
8480;SDS011;4277;51.354;6.740;2023-10-08T05:03:08;8.50;;;4.00;;
8480;SDS011;4277;51.354;6.740;2023-10-08T05:05:39;7.30;;;4.07;;
8480;SDS011;4277;51.354;6.740;2023-10-08T05:08:41;7.97;;;4.60;;
8480;SDS011;4277;51.354;6.740;2023-10-08T05:11:22;8.33;;;4.83;;
8480;SDS011;4277;51.354;6.740;2023-10-08T05:14:13;10.40;;;4.67;;
8480;SDS011;4277;51.354;6.740;2023-10-08T05:16:56;7.07;;;4.40;;
8480;SDS011;4277;51.354;6.740;2023-10-08T05:19:28;7.70;;;4.30;;
8480;SDS011;4277;51.354;6.740;2023-10-08T05:22:03;9.40;;;4.30;;
8480;SDS011;4277;51.354;6.740;2023-10-08T05:24:48;8.37;;;3.93;;
8480;SDS011;4277;51.354;6.740;2023-10-08T05:27:33;10.03;;;4.10;;
8480;SDS011;4277;51.354;6.740;2023-10-08T05:30:03;8.43;;;4.40;;
8480;SDS011;4277;51.354;6.740;2023-10-08T05:32:36;8.40;;;4.10;;
8480;SDS011;4277;51.354;6.740;2023-10-08T05:35:04;9.07;;;4.30;;
8480;SDS011;4277;51.354;6.740;2023-10-08T05:37:49;7.23;;;4.37;;
8480;SDS011;4277;51.354;6.740;2023-10-08T05:40:27;7.83;;;4.37;;
8480;SDS011;4277;51.354;6.740;2023-10-08T05:43:12;9.23;;;4.33;;
8480;SDS011;4277;51.354;6.740;2023-10-08T05:45:57;10.97;;;4.57;;
8480;SDS011;4277;51.354;6.740;2023-10-08T05:48:43;7.33;;;4.40;;
8480;SDS011;4277;51.354;6.740;2023-10-08T05:51:27;9.87;;;4.53;;
8480;SDS011;4277;51.354;6.740;2023-10-08T05:54:23;7.50;;;4.13;;
8480;SDS011;4277;51.354;6.740;2023-10-08T05:56:58;8.37;;;4.37;;
8480;SDS011;4277;51.354;6.740;2023-10-08T06:02:28;8.53;;;4.60;;
8480;SDS011;4277;51.354;6.740;2023-10-08T06:05:13;11.43;;;4.33;;
8480;SDS011;4277;51.354;6.740;2023-10-08T06:07:49;8.17;;;4.23;;
8480;SDS011;4277;51.354;6.740;2023-10-08T06:13:07;8.07;;;4.07;;
8480;SDS011;4277;51.354;6.740;2023-10-08T06:15:52;7.30;;;3.80;;
8480;SDS011;4277;51.354;6.740;2023-10-08T06:18:24;7.50;;;4.20;;
8480;SDS011;4277;51.354;6.740;2023-10-08T06:20:51;8.57;;;4.37;;
8480;SDS011;4277;51.354;6.740;2023-10-08T06:23:21;6.77;;;4.30;;
8480;SDS011;4277;51.354;6.740;2023-10-08T06:25:48;6.23;;;4.00;;
8480;SDS011;4277;51.354;6.740;2023-10-08T06:28:30;8.17;;;4.27;;
8480;SDS011;4277;51.354;6.740;2023-10-08T06:30:58;8.50;;;4.33;;
8480;SDS011;4277;51.354;6.740;2023-10-08T06:33:24;7.43;;;4.30;;
8480;SDS011;4277;51.354;6.740;2023-10-08T06:35:55;7.10;;;4.30;;
8480;SDS011;4277;51.354;6.740;2023-10-08T06:38:34;8.93;;;4.27;;
8480;SDS011;4277;51.354;6.740;2023-10-08T06:41:01;12.03;;;4.50;;
8480;SDS011;4277;51.354;6.740;2023-10-08T06:43:43;6.33;;;4.00;;
8480;SDS011;4277;51.354;6.740;2023-10-08T06:46:30;7.27;;;4.23;;
8480;SDS011;4277;51.354;6.740;2023-10-08T06:49:02;8.47;;;4.63;;
8480;SDS011;4277;51.354;6.740;2023-10-08T06:51:28;9.53;;;4.60;;
8480;SDS011;4277;51.354;6.740;2023-10-08T06:53:57;7.27;;;4.40;;
8480;SDS011;4277;51.354;6.740;2023-10-08T06:56:27;7.57;;;4.23;;
8480;SDS011;4277;51.354;6.740;2023-10-08T06:58:53;8.27;;;4.40;;
8480;SDS011;4277;51.354;6.740;2023-10-08T07:01:20;8.93;;;4.50;;
8480;SDS011;4277;51.354;6.740;2023-10-08T07:03:49;7.50;;;4.23;;
8480;SDS011;4277;51.354;6.740;2023-10-08T07:06:15;6.00;;;4.07;;
8480;SDS011;4277;51.354;6.740;2023-10-08T07:08:42;9.10;;;4.50;;
8480;SDS011;4277;51.354;6.740;2023-10-08T07:11:11;8.97;;;4.47;;
8480;SDS011;4277;51.354;6.740;2023-10-08T07:13:37;9.47;;;4.40;;
8480;SDS011;4277;51.354;6.740;2023-10-08T07:16:05;7.40;;;3.90;;
8480;SDS011;4277;51.354;6.740;2023-10-08T07:18:36;9.47;;;4.40;;
8480;SDS011;4277;51.354;6.740;2023-10-08T07:21:02;6.83;;;3.97;;
8480;SDS011;4277;51.354;6.740;2023-10-08T07:23:29;9.20;;;4.30;;
8480;SDS011;4277;51.354;6.740;2023-10-08T07:26:02;8.33;;;4.40;;
8480;SDS011;4277;51.354;6.740;2023-10-08T07:28:43;7.33;;;4.20;;
8480;SDS011;4277;51.354;6.740;2023-10-08T07:31:13;8.57;;;4.70;;
8480;SDS011;4277;51.354;6.740;2023-10-08T07:33:46;9.07;;;4.17;;
8480;SDS011;4277;51.354;6.740;2023-10-08T07:36:12;15.63;;;6.20;;
8480;SDS011;4277;51.354;6.740;2023-10-08T07:38:43;11.60;;;5.60;;
8480;SDS011;4277;51.354;6.740;2023-10-08T07:41:10;14.20;;;5.93;;
8480;SDS011;4277;51.354;6.740;2023-10-08T07:43:38;11.67;;;5.80;;
8480;SDS011;4277;51.354;6.740;2023-10-08T07:46:04;10.00;;;4.87;;
8480;SDS011;4277;51.354;6.740;2023-10-08T07:48:31;11.73;;;5.23;;
8480;SDS011;4277;51.354;6.740;2023-10-08T07:50:57;12.90;;;5.53;;
8480;SDS011;4277;51.354;6.740;2023-10-08T07:53:24;12.27;;;5.40;;
8480;SDS011;4277;51.354;6.740;2023-10-08T07:56:02;7.87;;;4.77;;
8480;SDS011;4277;51.354;6.740;2023-10-08T07:58:31;10.93;;;4.80;;
8480;SDS011;4277;51.354;6.740;2023-10-08T08:01:02;12.27;;;5.40;;
8480;SDS011;4277;51.354;6.740;2023-10-08T08:03:31;11.90;;;5.27;;
8480;SDS011;4277;51.354;6.740;2023-10-08T08:05:57;17.83;;;5.93;;
8480;SDS011;4277;51.354;6.740;2023-10-08T08:08:23;15.77;;;6.30;;
8480;SDS011;4277;51.354;6.740;2023-10-08T08:10:52;21.30;;;6.00;;
8480;SDS011;4277;51.354;6.740;2023-10-08T08:13:23;27.75;;;7.80;;
8480;SDS011;4277;51.354;6.740;2023-10-08T08:15:52;21.70;;;7.55;;
8480;SDS011;4277;51.354;6.740;2023-10-08T08:18:23;26.45;;;7.45;;
8480;SDS011;4277;51.354;6.740;2023-10-08T08:20:49;25.45;;;8.40;;
8480;SDS011;4277;51.354;6.740;2023-10-08T08:23:15;16.98;;;7.60;;
8480;SDS011;4277;51.354;6.740;2023-10-08T08:25:41;15.32;;;7.35;;
8480;SDS011;4277;51.354;6.740;2023-10-08T08:28:12;26.00;;;8.60;;
8480;SDS011;4277;51.354;6.740;2023-10-08T08:30:46;20.77;;;7.80;;
8480;SDS011;4277;51.354;6.740;2023-10-08T08:33:13;19.42;;;7.18;;
8480;SDS011;4277;51.354;6.740;2023-10-08T08:35:47;19.08;;;8.23;;
8480;SDS011;4277;51.354;6.740;2023-10-08T08:38:13;16.63;;;7.75;;
8480;SDS011;4277;51.354;6.740;2023-10-08T08:40:39;14.65;;;6.35;;
8480;SDS011;4277;51.354;6.740;2023-10-08T08:43:05;17.33;;;7.15;;
8480;SDS011;4277;51.354;6.740;2023-10-08T08:45:32;14.45;;;7.07;;
8480;SDS011;4277;51.354;6.740;2023-10-08T08:48:00;16.88;;;6.97;;
8480;SDS011;4277;51.354;6.740;2023-10-08T08:50:26;13.48;;;7.32;;
8480;SDS011;4277;51.354;6.740;2023-10-08T08:52:52;11.13;;;6.97;;
8480;SDS011;4277;51.354;6.740;2023-10-08T08:55:18;18.77;;;7.65;;
8480;SDS011;4277;51.354;6.740;2023-10-08T08:57:48;16.30;;;7.35;;
8480;SDS011;4277;51.354;6.740;2023-10-08T09:00:16;12.70;;;6.72;;
8480;SDS011;4277;51.354;6.740;2023-10-08T09:02:43;20.77;;;7.72;;
8480;SDS011;4277;51.354;6.740;2023-10-08T09:05:11;18.65;;;7.40;;
8480;SDS011;4277;51.354;6.740;2023-10-08T09:10:20;17.02;;;7.75;;
8480;SDS011;4277;51.354;6.740;2023-10-08T09:12:51;18.20;;;8.25;;
8480;SDS011;4277;51.354;6.740;2023-10-08T09:15:19;14.85;;;7.50;;
8480;SDS011;4277;51.354;6.740;2023-10-08T09:17:47;21.17;;;8.32;;
8480;SDS011;4277;51.354;6.740;2023-10-08T09:20:14;19.10;;;8.32;;
8480;SDS011;4277;51.354;6.740;2023-10-08T09:22:40;16.60;;;7.57;;
8480;SDS011;4277;51.354;6.740;2023-10-08T09:25:06;15.32;;;8.15;;
8480;SDS011;4277;51.354;6.740;2023-10-08T09:27:32;13.77;;;8.30;;
8480;SDS011;4277;51.354;6.740;2023-10-08T09:29:58;28.55;;;11.77;;
8480;SDS011;4277;51.354;6.740;2023-10-08T09:32:24;18.58;;;9.25;;
8480;SDS011;4277;51.354;6.740;2023-10-08T09:34:53;25.60;;;11.40;;
8480;SDS011;4277;51.354;6.740;2023-10-08T09:37:21;32.35;;;14.07;;
8480;SDS011;4277;51.354;6.740;2023-10-08T09:39:48;26.15;;;12.25;;
8480;SDS011;4277;51.354;6.740;2023-10-08T09:42:17;32.28;;;13.95;;
8480;SDS011;4277;51.354;6.740;2023-10-08T09:44:46;28.33;;;13.30;;
8480;SDS011;4277;51.354;6.740;2023-10-08T09:47:12;28.40;;;12.95;;
8480;SDS011;4277;51.354;6.740;2023-10-08T09:49:53;29.58;;;12.07;;
8480;SDS011;4277;51.354;6.740;2023-10-08T09:52:23;28.58;;;12.95;;
8480;SDS011;4277;51.354;6.740;2023-10-08T09:54:53;27.83;;;13.73;;
8480;SDS011;4277;51.354;6.740;2023-10-08T09:57:20;19.23;;;11.27;;
8480;SDS011;4277;51.354;6.740;2023-10-08T09:59:51;17.27;;;10.15;;
8480;SDS011;4277;51.354;6.740;2023-10-08T10:02:18;16.58;;;9.25;;
8480;SDS011;4277;51.354;6.740;2023-10-08T10:04:48;15.93;;;8.82;;
8480;SDS011;4277;51.354;6.740;2023-10-08T10:07:17;15.68;;;8.32;;
8480;SDS011;4277;51.354;6.740;2023-10-08T10:09:43;11.73;;;7.78;;
8480;SDS011;4277;51.354;6.740;2023-10-08T10:12:11;16.08;;;8.20;;
8480;SDS011;4277;51.354;6.740;2023-10-08T10:14:42;11.88;;;7.63;;
8480;SDS011;4277;51.354;6.740;2023-10-08T10:17:09;14.63;;;7.63;;
8480;SDS011;4277;51.354;6.740;2023-10-08T10:19:39;13.13;;;7.78;;
8480;SDS011;4277;51.354;6.740;2023-10-08T10:22:10;17.50;;;8.25;;
8480;SDS011;4277;51.354;6.740;2023-10-08T10:24:36;14.77;;;7.20;;
8480;SDS011;4277;51.354;6.740;2023-10-08T10:27:09;11.65;;;7.32;;
8480;SDS011;4277;51.354;6.740;2023-10-08T10:29:35;15.90;;;7.15;;
8480;SDS011;4277;51.354;6.740;2023-10-08T10:32:01;13.73;;;8.05;;
8480;SDS011;4277;51.354;6.740;2023-10-08T10:34:30;15.55;;;8.15;;
8480;SDS011;4277;51.354;6.740;2023-10-08T10:36:59;16.77;;;9.07;;
8480;SDS011;4277;51.354;6.740;2023-10-08T10:39:33;19.00;;;8.90;;
8480;SDS011;4277;51.354;6.740;2023-10-08T10:42:05;15.27;;;8.18;;
8480;SDS011;4277;51.354;6.740;2023-10-08T10:44:32;18.90;;;8.02;;
8480;SDS011;4277;51.354;6.740;2023-10-08T10:46:58;16.33;;;7.82;;
8480;SDS011;4277;51.354;6.740;2023-10-08T10:49:40;23.77;;;10.75;;
8480;SDS011;4277;51.354;6.740;2023-10-08T10:52:26;21.48;;;12.15;;
8480;SDS011;4277;51.354;6.740;2023-10-08T10:55:09;24.92;;;15.40;;
8480;SDS011;4277;51.354;6.740;2023-10-08T10:57:54;24.65;;;16.25;;
8480;SDS011;4277;51.354;6.740;2023-10-08T11:00:36;25.45;;;17.88;;
8480;SDS011;4277;51.354;6.740;2023-10-08T11:03:03;27.02;;;17.40;;
8480;SDS011;4277;51.354;6.740;2023-10-08T11:05:41;25.83;;;18.08;;
8480;SDS011;4277;51.354;6.740;2023-10-08T11:08:13;27.88;;;16.15;;
8480;SDS011;4277;51.354;6.740;2023-10-08T11:10:41;23.33;;;14.15;;
8480;SDS011;4277;51.354;6.740;2023-10-08T11:13:20;20.48;;;13.95;;
8480;SDS011;4277;51.354;6.740;2023-10-08T11:15:47;18.25;;;11.27;;
8480;SDS011;4277;51.354;6.740;2023-10-08T11:18:18;21.08;;;11.23;;
8480;SDS011;4277;51.354;6.740;2023-10-08T11:20:44;17.60;;;10.23;;
8480;SDS011;4277;51.354;6.740;2023-10-08T11:23:11;20.33;;;10.05;;
8480;SDS011;4277;51.354;6.740;2023-10-08T11:25:53;20.52;;;9.57;;
8480;SDS011;4277;51.354;6.740;2023-10-08T11:28:19;16.30;;;8.55;;
8480;SDS011;4277;51.354;6.740;2023-10-08T11:30:47;14.73;;;7.88;;
8480;SDS011;4277;51.354;6.740;2023-10-08T11:33:16;10.85;;;7.25;;
8480;SDS011;4277;51.354;6.740;2023-10-08T11:35:56;13.48;;;7.43;;
8480;SDS011;4277;51.354;6.740;2023-10-08T11:38:26;10.57;;;7.00;;
8480;SDS011;4277;51.354;6.740;2023-10-08T11:40:53;11.05;;;6.03;;
8480;SDS011;4277;51.354;6.740;2023-10-08T11:43:22;12.73;;;5.85;;
8480;SDS011;4277;51.354;6.740;2023-10-08T11:45:48;14.15;;;6.30;;
8480;SDS011;4277;51.354;6.740;2023-10-08T11:48:15;9.77;;;5.10;;
8480;SDS011;4277;51.354;6.740;2023-10-08T11:50:53;10.57;;;5.60;;
8480;SDS011;4277;51.354;6.740;2023-10-08T11:53:22;8.77;;;4.90;;
8480;SDS011;4277;51.354;6.740;2023-10-08T11:55:49;9.18;;;5.30;;
8480;SDS011;4277;51.354;6.740;2023-10-08T11:58:21;11.35;;;5.60;;
8480;SDS011;4277;51.354;6.740;2023-10-08T12:01:00;9.35;;;5.45;;
8480;SDS011;4277;51.354;6.740;2023-10-08T12:03:28;10.70;;;5.72;;
8480;SDS011;4277;51.354;6.740;2023-10-08T12:05:56;8.52;;;5.82;;
8480;SDS011;4277;51.354;6.740;2023-10-08T12:08:25;9.75;;;4.63;;
8480;SDS011;4277;51.354;6.740;2023-10-08T12:10:52;11.43;;;6.10;;
8480;SDS011;4277;51.354;6.740;2023-10-08T12:13:22;7.55;;;5.10;;
8480;SDS011;4277;51.354;6.740;2023-10-08T12:15:54;10.60;;;5.75;;
8480;SDS011;4277;51.354;6.740;2023-10-08T12:18:38;9.70;;;4.97;;
8480;SDS011;4277;51.354;6.740;2023-10-08T12:21:09;9.05;;;5.32;;
8480;SDS011;4277;51.354;6.740;2023-10-08T12:23:38;10.45;;;5.72;;
8480;SDS011;4277;51.354;6.740;2023-10-08T12:26:04;14.18;;;6.50;;
8480;SDS011;4277;51.354;6.740;2023-10-08T12:28:33;7.85;;;6.10;;
8480;SDS011;4277;51.354;6.740;2023-10-08T12:30:59;11.30;;;6.53;;
8480;SDS011;4277;51.354;6.740;2023-10-08T12:33:35;10.88;;;5.93;;
8480;SDS011;4277;51.354;6.740;2023-10-08T12:36:01;17.42;;;6.90;;
8480;SDS011;4277;51.354;6.740;2023-10-08T12:38:36;9.43;;;6.95;;
8480;SDS011;4277;51.354;6.740;2023-10-08T12:41:02;8.40;;;6.32;;
8480;SDS011;4277;51.354;6.740;2023-10-08T12:43:41;10.00;;;6.95;;
8480;SDS011;4277;51.354;6.740;2023-10-08T12:46:08;10.88;;;6.43;;
8480;SDS011;4277;51.354;6.740;2023-10-08T12:48:44;9.73;;;6.57;;
8480;SDS011;4277;51.354;6.740;2023-10-08T12:51:16;10.13;;;7.10;;
8480;SDS011;4277;51.354;6.740;2023-10-08T12:53:42;11.50;;;6.70;;
8480;SDS011;4277;51.354;6.740;2023-10-08T12:56:15;9.88;;;6.95;;
8480;SDS011;4277;51.354;6.740;2023-10-08T12:58:42;9.13;;;6.10;;
8480;SDS011;4277;51.354;6.740;2023-10-08T13:01:14;9.57;;;5.40;;
8480;SDS011;4277;51.354;6.740;2023-10-08T13:03:42;9.40;;;5.10;;
8480;SDS011;4277;51.354;6.740;2023-10-08T13:06:12;9.82;;;5.13;;
8480;SDS011;4277;51.354;6.740;2023-10-08T13:08:51;8.57;;;5.07;;
8480;SDS011;4277;51.354;6.740;2023-10-08T13:11:18;8.52;;;5.28;;
8480;SDS011;4277;51.354;6.740;2023-10-08T13:13:50;7.95;;;5.38;;
8480;SDS011;4277;51.354;6.740;2023-10-08T13:16:17;8.27;;;4.95;;
8480;SDS011;4277;51.354;6.740;2023-10-08T13:18:44;11.00;;;5.68;;
8480;SDS011;4277;51.354;6.740;2023-10-08T13:21:10;9.50;;;5.32;;
8480;SDS011;4277;51.354;6.740;2023-10-08T13:23:36;10.00;;;5.47;;
8480;SDS011;4277;51.354;6.740;2023-10-08T13:26:02;10.32;;;5.90;;
8480;SDS011;4277;51.354;6.740;2023-10-08T13:28:34;7.45;;;5.40;;
8480;SDS011;4277;51.354;6.740;2023-10-08T13:31:01;8.65;;;4.95;;
8480;SDS011;4277;51.354;6.740;2023-10-08T13:33:34;7.45;;;4.88;;
8480;SDS011;4277;51.354;6.740;2023-10-08T13:36:00;7.00;;;4.65;;
8480;SDS011;4277;51.354;6.740;2023-10-08T13:38:26;7.18;;;4.68;;
8480;SDS011;4277;51.354;6.740;2023-10-08T13:40:53;9.30;;;4.82;;
8480;SDS011;4277;51.354;6.740;2023-10-08T13:43:32;9.48;;;4.95;;
8480;SDS011;4277;51.354;6.740;2023-10-08T13:46:00;8.60;;;5.10;;
8480;SDS011;4277;51.354;6.740;2023-10-08T13:48:31;8.93;;;5.05;;
8480;SDS011;4277;51.354;6.740;2023-10-08T13:50:58;8.65;;;4.88;;
8480;SDS011;4277;51.354;6.740;2023-10-08T13:53:25;9.75;;;5.15;;
8480;SDS011;4277;51.354;6.740;2023-10-08T13:55:56;10.27;;;5.15;;
8480;SDS011;4277;51.354;6.740;2023-10-08T13:58:25;8.68;;;4.78;;
8480;SDS011;4277;51.354;6.740;2023-10-08T14:00:51;7.15;;;4.72;;
8480;SDS011;4277;51.354;6.740;2023-10-08T14:03:18;7.38;;;4.63;;
8480;SDS011;4277;51.354;6.740;2023-10-08T14:05:46;8.05;;;4.45;;
8480;SDS011;4277;51.354;6.740;2023-10-08T14:08:15;6.70;;;4.45;;
8480;SDS011;4277;51.354;6.740;2023-10-08T14:10:42;9.50;;;4.57;;
8480;SDS011;4277;51.354;6.740;2023-10-08T14:13:08;7.93;;;4.97;;
8480;SDS011;4277;51.354;6.740;2023-10-08T14:15:34;10.60;;;4.88;;
8480;SDS011;4277;51.354;6.740;2023-10-08T14:18:07;7.47;;;4.85;;
8480;SDS011;4277;51.354;6.740;2023-10-08T14:20:36;8.63;;;4.80;;
8480;SDS011;4277;51.354;6.740;2023-10-08T14:23:05;9.98;;;5.13;;
8480;SDS011;4277;51.354;6.740;2023-10-08T14:25:31;7.80;;;4.97;;
8480;SDS011;4277;51.354;6.740;2023-10-08T14:27:59;10.90;;;5.57;;
8480;SDS011;4277;51.354;6.740;2023-10-08T14:30:32;9.27;;;5.13;;
8480;SDS011;4277;51.354;6.740;2023-10-08T14:33:06;9.23;;;5.00;;
8480;SDS011;4277;51.354;6.740;2023-10-08T14:35:38;8.45;;;5.00;;
8480;SDS011;4277;51.354;6.740;2023-10-08T14:38:22;8.68;;;4.72;;
8480;SDS011;4277;51.354;6.740;2023-10-08T14:41:07;8.95;;;5.32;;
8480;SDS011;4277;51.354;6.740;2023-10-08T14:43:52;7.43;;;4.90;;
8480;SDS011;4277;51.354;6.740;2023-10-08T14:46:18;9.55;;;5.22;;
8480;SDS011;4277;51.354;6.740;2023-10-08T14:48:45;7.95;;;4.72;;
8480;SDS011;4277;51.354;6.740;2023-10-08T14:51:11;9.38;;;5.20;;
8480;SDS011;4277;51.354;6.740;2023-10-08T14:53:44;8.50;;;5.30;;
8480;SDS011;4277;51.354;6.740;2023-10-08T14:56:10;9.73;;;5.40;;
8480;SDS011;4277;51.354;6.740;2023-10-08T14:58:36;10.00;;;5.97;;
8480;SDS011;4277;51.354;6.740;2023-10-08T15:01:02;8.05;;;5.20;;
8480;SDS011;4277;51.354;6.740;2023-10-08T15:03:28;10.52;;;6.25;;
8480;SDS011;4277;51.354;6.740;2023-10-08T15:05:56;8.90;;;5.90;;
8480;SDS011;4277;51.354;6.740;2023-10-08T15:08:22;11.88;;;6.22;;
8480;SDS011;4277;51.354;6.740;2023-10-08T15:10:51;10.93;;;5.97;;
8480;SDS011;4277;51.354;6.740;2023-10-08T15:13:19;8.00;;;5.47;;
8480;SDS011;4277;51.354;6.740;2023-10-08T15:15:44;10.23;;;6.10;;
8480;SDS011;4277;51.354;6.740;2023-10-08T15:18:10;8.68;;;6.03;;
8480;SDS011;4277;51.354;6.740;2023-10-08T15:20:39;10.93;;;6.28;;
8480;SDS011;4277;51.354;6.740;2023-10-08T15:23:06;10.15;;;6.32;;
8480;SDS011;4277;51.354;6.740;2023-10-08T15:25:32;9.52;;;5.82;;
8480;SDS011;4277;51.354;6.740;2023-10-08T15:27:58;12.85;;;6.15;;
8480;SDS011;4277;51.354;6.740;2023-10-08T15:30:24;10.90;;;6.65;;
8480;SDS011;4277;51.354;6.740;2023-10-08T15:32:51;9.10;;;6.50;;
8480;SDS011;4277;51.354;6.740;2023-10-08T15:35:18;9.60;;;6.07;;
8480;SDS011;4277;51.354;6.740;2023-10-08T15:37:50;8.80;;;5.80;;
8480;SDS011;4277;51.354;6.740;2023-10-08T15:40:16;7.90;;;5.47;;